Archival Weather

Snohomish County (Paine Fld)

Everett, Washington (KPAE)

Report from: Tuesday, November 14, 2023 5:53 PM PST
Current time: Saturday, June 22, 2024 2:23 AM PDT

Current weather – Weather history – Daily summaries
Weather forecast

Temperature4.4°C (39.9°F)
Wind chill3.2°C (37.8°F)
Dew point2.2°C (36.0°F)
Winds 3 kts (1.5 m/s, 3.5 mph) North (360°)
Visibility10 mi. (16.1 km)
Clouds Sky clear
Altimeter30.00 in.Hg (1016 mB)
Relative humidity86 %
Density altitude-1,280 ft. (-390 m)
Sea-level pressure101.6 kPa (1016 mB, 30.01 in.Hg)
Remarks Automated weather observing station with precipitation discriminator
Flight conditions Visual Meteorological Conditions
Raw dataKPAE 150153Z 36003KT 10SM CLR 04/02 A3000 RMK AO2 SLP163 T00440022
An error has occurred. This application may no longer respond until reloaded. Reload 🗙